createdAt,value
2022-10-05T00:05:38.278Z,79.12
2022-10-05T00:15:43.888Z,78.75
2022-10-05T00:25:54.281Z,79.24
2022-10-05T00:35:59.084Z,79.42
2022-10-05T00:46:06.952Z,78.28
2022-10-05T00:56:13.458Z,78.51
2022-10-05T01:06:21.333Z,79.00
2022-10-05T01:16:27.566Z,78.43
2022-10-05T01:26:35.459Z,79.02
2022-10-05T01:36:41.595Z,78.60
2022-10-05T01:46:49.636Z,78.44
2022-10-05T01:56:56.266Z,79.33
2022-10-05T02:07:03.908Z,79.04
2022-10-05T02:17:10.483Z,79.78
2022-10-05T02:27:17.521Z,79.50
2022-10-05T02:37:23.767Z,80.67
2022-10-05T02:47:31.088Z,79.56
2022-10-05T02:57:36.948Z,79.84
2022-10-05T03:07:44.679Z,79.67
2022-10-05T03:17:51.338Z,79.13
2022-10-05T03:28:01.636Z,79.18
2022-10-05T03:38:07.276Z,79.15
2022-10-05T03:48:14.807Z,79.29
2022-10-05T03:58:21.322Z,79.50
2022-10-05T04:08:29.447Z,80.63
2022-10-05T04:18:35.578Z,79.76
2022-10-05T04:28:43.470Z,79.00
2022-10-05T04:38:49.485Z,79.40
2022-10-05T04:48:56.907Z,80.44
2022-10-05T04:59:02.903Z,80.09
2022-10-05T05:09:10.735Z,80.16
2022-10-05T05:19:16.727Z,80.86
2022-10-05T05:29:24.375Z,83.09
2022-10-05T05:39:30.325Z,82.46
2022-10-05T05:49:36.964Z,82.26
2022-10-05T05:59:43.299Z,82.45
2022-10-05T06:09:49.583Z,83.38
2022-10-05T06:19:57.427Z,82.87
2022-10-05T06:30:08.198Z,82.27
2022-10-05T06:40:14.228Z,82.25
2022-10-05T06:50:20.418Z,81.69
2022-10-05T07:00:26.344Z,81.03
2022-10-05T07:10:33.894Z,80.70
2022-10-05T07:20:40.081Z,78.15
2022-10-05T07:30:49.011Z,77.25
2022-10-05T07:40:56.306Z,77.73
2022-10-05T07:51:03.764Z,76.44
2022-10-05T08:01:11.254Z,75.82
2022-10-05T08:11:18.275Z,76.08
2022-10-05T08:21:25.517Z,74.46
2022-10-05T08:31:32.631Z,75.28
2022-10-05T08:41:39.970Z,73.47
2022-10-05T08:51:47.464Z,74.72
2022-10-05T09:01:55.306Z,74.08
2022-10-05T09:12:02.439Z,72.74
2022-10-05T09:22:09.948Z,71.01
2022-10-05T09:32:17.388Z,69.01
2022-10-05T09:42:24.903Z,68.73
2022-10-05T09:52:31.274Z,65.08
2022-10-05T10:02:39.000Z,62.70
2022-10-05T10:12:46.351Z,63.33
2022-10-05T10:24:13.502Z,62.55
2022-10-05T10:34:21.433Z,61.69
2022-10-05T10:44:28.645Z,61.12
2022-10-05T10:54:35.783Z,60.06
2022-10-05T11:04:43.393Z,58.76
2022-10-05T11:14:50.769Z,58.33
2022-10-05T11:24:58.290Z,58.07
2022-10-05T11:35:05.814Z,58.09
2022-10-05T11:45:13.332Z,58.01
2022-10-05T11:55:20.008Z,58.26
2022-10-05T12:05:27.348Z,58.87
2022-10-05T12:15:34.476Z,59.51
2022-10-05T12:25:41.884Z,60.09
2022-10-05T12:35:49.737Z,59.64
2022-10-05T12:45:57.617Z,58.55
2022-10-05T12:56:05.171Z,58.21
2022-10-05T13:06:12.814Z,59.32
2022-10-05T13:16:19.699Z,62.31
2022-10-05T13:26:25.971Z,62.51
2022-10-05T13:36:32.948Z,63.04
2022-10-05T13:46:39.917Z,63.71
2022-10-05T13:56:47.324Z,63.83
2022-10-05T14:06:54.459Z,63.96
2022-10-05T14:27:08.886Z,66.08
2022-10-05T14:37:16.120Z,66.39
2022-10-05T14:47:23.317Z,66.65
2022-10-05T14:57:30.633Z,66.53
2022-10-05T15:07:37.416Z,66.63
2022-10-05T15:17:43.609Z,67.21
2022-10-05T15:27:50.328Z,68.14
2022-10-05T15:37:57.345Z,69.16
2022-10-05T15:48:04.284Z,70.18
2022-10-05T15:58:11.513Z,71.08
2022-10-05T16:08:18.250Z,71.72
2022-10-05T16:18:27.218Z,72.29
2022-10-05T16:28:34.310Z,72.65
2022-10-05T16:38:41.650Z,73.88
2022-10-05T16:48:48.805Z,74.11
2022-10-05T16:58:55.911Z,74.63
2022-10-05T17:09:02.114Z,75.24
2022-10-05T17:19:09.483Z,75.72
2022-10-05T17:29:16.580Z,76.01
2022-10-05T17:39:23.812Z,76.49
2022-10-05T17:49:30.374Z,76.45
2022-10-05T17:59:37.406Z,76.61
2022-10-05T18:09:44.412Z,76.88
2022-10-05T18:19:51.833Z,76.88
2022-10-05T18:29:58.380Z,77.58
2022-10-05T18:40:05.746Z,78.55
2022-10-05T18:50:11.338Z,78.78
2022-10-05T19:00:16.432Z,78.37
2022-10-05T19:10:21.751Z,78.84
2022-10-05T19:20:27.235Z,78.68
2022-10-05T19:30:33.241Z,78.73
2022-10-05T19:40:38.991Z,78.75
2022-10-05T19:50:44.234Z,78.89
2022-10-05T20:00:49.876Z,78.98
2022-10-05T20:10:55.721Z,79.11
2022-10-05T20:21:01.375Z,79.66
2022-10-05T20:31:07.119Z,79.86
2022-10-05T20:41:12.538Z,80.98
2022-10-05T20:51:18.303Z,81.47
2022-10-05T21:01:23.986Z,81.48
2022-10-05T21:11:30.050Z,81.52
2022-10-05T21:21:35.618Z,81.75
2022-10-05T21:31:41.249Z,81.77
2022-10-05T21:41:47.981Z,81.70
2022-10-05T21:51:55.139Z,81.42
2022-10-05T22:02:00.778Z,81.84
2022-10-05T22:12:06.547Z,81.85
2022-10-05T22:22:12.135Z,81.93
2022-10-05T22:32:17.344Z,81.82
2022-10-05T22:42:22.687Z,81.60
2022-10-05T22:52:28.265Z,81.54
2022-10-05T23:02:33.245Z,81.54
2022-10-05T23:12:39.768Z,81.41
2022-10-05T23:22:45.266Z,81.38
2022-10-05T23:32:51.367Z,81.59
2022-10-05T23:42:57.572Z,81.54
2022-10-05T23:53:03.660Z,81.35
